sensor_id;sensor_type;location;lat;lon;timestamp;pressure;altitude;pressure_sealevel;temperature
69364;BMP280;56526;55.406;86.130;2022-09-11T00:01:00;98024.53;;;7.51
69364;BMP280;56526;55.406;86.130;2022-09-11T00:03:26;98023.47;;;7.61
69364;BMP280;56526;55.406;86.130;2022-09-11T00:05:53;98024.75;;;7.64
69364;BMP280;56526;55.406;86.130;2022-09-11T00:08:20;98017.13;;;7.53
69364;BMP280;56526;55.406;86.130;2022-09-11T00:10:47;98017.41;;;7.52
69364;BMP280;56526;55.406;86.130;2022-09-11T00:13:19;98016.34;;;7.53
69364;BMP280;56526;55.406;86.130;2022-09-11T00:15:49;98015.75;;;7.56
69364;BMP280;56526;55.406;86.130;2022-09-11T00:18:18;98014.31;;;7.59
69364;BMP280;56526;55.406;86.130;2022-09-11T00:20:53;98018.69;;;7.63
69364;BMP280;56526;55.406;86.130;2022-09-11T00:23:23;98019.63;;;7.67
69364;BMP280;56526;55.406;86.130;2022-09-11T00:25:51;98015.59;;;7.70
69364;BMP280;56526;55.406;86.130;2022-09-11T00:28:20;98013.31;;;7.77
69364;BMP280;56526;55.406;86.130;2022-09-11T00:31:02;98014.69;;;7.83
69364;BMP280;56526;55.406;86.130;2022-09-11T00:33:29;98013.47;;;7.89
69364;BMP280;56526;55.406;86.130;2022-09-11T00:36:02;98008.53;;;7.96
69364;BMP280;56526;55.406;86.130;2022-09-11T00:38:33;98007.63;;;8.01
69364;BMP280;56526;55.406;86.130;2022-09-11T00:41:03;98001.41;;;8.05
69364;BMP280;56526;55.406;86.130;2022-09-11T00:43:52;98000.78;;;8.08
69364;BMP280;56526;55.406;86.130;2022-09-11T00:46:37;97999.53;;;8.14
69364;BMP280;56526;55.406;86.130;2022-09-11T00:52:22;97995.38;;;8.22
69364;BMP280;56526;55.406;86.130;2022-09-11T00:54:54;97990.56;;;8.33
69364;BMP280;56526;55.406;86.130;2022-09-11T00:57:29;97997.81;;;8.44
69364;BMP280;56526;55.406;86.130;2022-09-11T00:59:58;97988.94;;;8.66
69364;BMP280;56526;55.406;86.130;2022-09-11T01:02:27;97994.75;;;9.36
69364;BMP280;56526;55.406;86.130;2022-09-11T01:04:56;97989.03;;;10.17
69364;BMP280;56526;55.406;86.130;2022-09-11T01:07:25;97996.59;;;10.85
69364;BMP280;56526;55.406;86.130;2022-09-11T01:09:52;97985.88;;;11.54
69364;BMP280;56526;55.406;86.130;2022-09-11T01:12:27;97988.16;;;12.24
69364;BMP280;56526;55.406;86.130;2022-09-11T01:18:02;97993.38;;;13.30
69364;BMP280;56526;55.406;86.130;2022-09-11T01:24:15;97995.75;;;14.12
69364;BMP280;56526;55.406;86.130;2022-09-11T01:26:37;97994.91;;;14.50
69364;BMP280;56526;55.406;86.130;2022-09-11T01:29:27;97994.00;;;14.88
69364;BMP280;56526;55.406;86.130;2022-09-11T01:32:03;97989.38;;;15.12
69364;BMP280;56526;55.406;86.130;2022-09-11T01:34:59;97987.38;;;15.35
69364;BMP280;56526;55.406;86.130;2022-09-11T01:37:39;97991.09;;;15.57
69364;BMP280;56526;55.406;86.130;2022-09-11T01:40:37;97984.06;;;15.75
69364;BMP280;56526;55.406;86.130;2022-09-11T01:43:11;97994.38;;;16.14
69364;BMP280;56526;55.406;86.130;2022-09-11T01:45:44;97991.38;;;16.19
69364;BMP280;56526;55.406;86.130;2022-09-11T01:48:16;97986.00;;;16.15
69364;BMP280;56526;55.406;86.130;2022-09-11T01:50:45;97983.88;;;16.35
69364;BMP280;56526;55.406;86.130;2022-09-11T01:53:15;97986.69;;;16.53
69364;BMP280;56526;55.406;86.130;2022-09-11T01:55:52;97976.97;;;16.82
69364;BMP280;56526;55.406;86.130;2022-09-11T01:58:29;97981.75;;;17.17
69364;BMP280;56526;55.406;86.130;2022-09-11T02:01:12;97973.50;;;17.50
69364;BMP280;56526;55.406;86.130;2022-09-11T02:04:08;97978.50;;;17.80
69364;BMP280;56526;55.406;86.130;2022-09-11T02:06:47;97976.25;;;17.96
69364;BMP280;56526;55.406;86.130;2022-09-11T02:09:20;97978.88;;;17.75
69364;BMP280;56526;55.406;86.130;2022-09-11T02:11:48;97969.78;;;17.94
69364;BMP280;56526;55.406;86.130;2022-09-11T02:14:42;97971.72;;;18.32
69364;BMP280;56526;55.406;86.130;2022-09-11T02:20:15;97965.53;;;18.71
69364;BMP280;56526;55.406;86.130;2022-09-11T02:22:42;97969.94;;;19.20
69364;BMP280;56526;55.406;86.130;2022-09-11T02:25:09;97965.94;;;19.60
69364;BMP280;56526;55.406;86.130;2022-09-11T02:27:35;97966.13;;;19.87
69364;BMP280;56526;55.406;86.130;2022-09-11T02:30:03;97963.88;;;19.78
69364;BMP280;56526;55.406;86.130;2022-09-11T02:32:30;97958.31;;;19.48
69364;BMP280;56526;55.406;86.130;2022-09-11T02:34:57;97962.41;;;19.70
69364;BMP280;56526;55.406;86.130;2022-09-11T02:43:25;97949.56;;;20.40
69364;BMP280;56526;55.406;86.130;2022-09-11T02:49:24;97948.69;;;20.50
69364;BMP280;56526;55.406;86.130;2022-09-11T02:52:28;97949.94;;;20.79
69364;BMP280;56526;55.406;86.130;2022-09-11T02:58:18;97941.13;;;21.06
69364;BMP280;56526;55.406;86.130;2022-09-11T03:00:59;97946.56;;;21.33
69364;BMP280;56526;55.406;86.130;2022-09-11T03:03:27;97941.41;;;21.68
69364;BMP280;56526;55.406;86.130;2022-09-11T03:05:53;97945.81;;;21.55
69364;BMP280;56526;55.406;86.130;2022-09-11T03:08:20;97949.06;;;21.93
69364;BMP280;56526;55.406;86.130;2022-09-11T03:10:49;97945.56;;;22.20
69364;BMP280;56526;55.406;86.130;2022-09-11T03:13:15;97943.72;;;22.36
69364;BMP280;56526;55.406;86.130;2022-09-11T03:15:41;97944.69;;;22.26
69364;BMP280;56526;55.406;86.130;2022-09-11T03:18:08;97943.34;;;22.15
69364;BMP280;56526;55.406;86.130;2022-09-11T03:20:35;97948.56;;;22.45
69364;BMP280;56526;55.406;86.130;2022-09-11T03:23:01;97944.16;;;22.11
69364;BMP280;56526;55.406;86.130;2022-09-11T03:25:27;97937.84;;;22.41
69364;BMP280;56526;55.406;86.130;2022-09-11T03:27:54;97943.50;;;22.67
69364;BMP280;56526;55.406;86.130;2022-09-11T03:30:20;97930.22;;;23.12
69364;BMP280;56526;55.406;86.130;2022-09-11T03:32:49;97934.72;;;23.34
69364;BMP280;56526;55.406;86.130;2022-09-11T03:35:15;97934.06;;;23.47
69364;BMP280;56526;55.406;86.130;2022-09-11T03:37:41;97933.13;;;23.21
69364;BMP280;56526;55.406;86.130;2022-09-11T03:40:08;97937.75;;;23.20
69364;BMP280;56526;55.406;86.130;2022-09-11T03:42:38;97933.34;;;23.26
69364;BMP280;56526;55.406;86.130;2022-09-11T03:45:04;97942.75;;;23.22
69364;BMP280;56526;55.406;86.130;2022-09-11T03:47:31;97935.59;;;22.96
69364;BMP280;56526;55.406;86.130;2022-09-11T03:49:57;97938.16;;;23.19
69364;BMP280;56526;55.406;86.130;2022-09-11T03:52:26;97934.06;;;23.30
69364;BMP280;56526;55.406;86.130;2022-09-11T03:54:53;97925.47;;;23.68
69364;BMP280;56526;55.406;86.130;2022-09-11T03:57:23;97928.66;;;23.79
69364;BMP280;56526;55.406;86.130;2022-09-11T03:59:49;97929.59;;;23.72
69364;BMP280;56526;55.406;86.130;2022-09-11T04:02:20;97927.41;;;23.51
69364;BMP280;56526;55.406;86.130;2022-09-11T04:04:47;97923.16;;;23.83
69364;BMP280;56526;55.406;86.130;2022-09-11T04:07:13;97919.13;;;24.32
69364;BMP280;56526;55.406;86.130;2022-09-11T04:09:40;97925.88;;;24.53
69364;BMP280;56526;55.406;86.130;2022-09-11T04:12:07;97921.16;;;24.57
69364;BMP280;56526;55.406;86.130;2022-09-11T04:14:33;97922.66;;;23.88
69364;BMP280;56526;55.406;86.130;2022-09-11T04:16:59;97919.78;;;23.30
69364;BMP280;56526;55.406;86.130;2022-09-11T04:19:25;97917.66;;;23.38
69364;BMP280;56526;55.406;86.130;2022-09-11T04:21:53;97907.97;;;23.72
69364;BMP280;56526;55.406;86.130;2022-09-11T04:24:20;97907.00;;;23.50
69364;BMP280;56526;55.406;86.130;2022-09-11T04:26:49;97906.06;;;23.41
69364;BMP280;56526;55.406;86.130;2022-09-11T04:29:15;97897.25;;;23.53
69364;BMP280;56526;55.406;86.130;2022-09-11T04:31:41;97904.06;;;23.09
69364;BMP280;56526;55.406;86.130;2022-09-11T04:34:08;97886.25;;;22.59
69364;BMP280;56526;55.406;86.130;2022-09-11T04:36:34;97891.91;;;22.05
69364;BMP280;56526;55.406;86.130;2022-09-11T04:39:00;97893.28;;;21.70
69364;BMP280;56526;55.406;86.130;2022-09-11T04:41:27;97890.00;;;21.59
69364;BMP280;56526;55.406;86.130;2022-09-11T04:43:56;97886.41;;;21.16
69364;BMP280;56526;55.406;86.130;2022-09-11T04:46:26;97877.06;;;20.70
69364;BMP280;56526;55.406;86.130;2022-09-11T04:48:54;97877.72;;;21.08
69364;BMP280;56526;55.406;86.130;2022-09-11T04:51:23;97875.72;;;21.62
69364;BMP280;56526;55.406;86.130;2022-09-11T04:53:51;97874.69;;;21.99
69364;BMP280;56526;55.406;86.130;2022-09-11T04:56:18;97877.34;;;22.62
69364;BMP280;56526;55.406;86.130;2022-09-11T04:58:45;97868.75;;;23.03
69364;BMP280;56526;55.406;86.130;2022-09-11T05:01:13;97871.25;;;23.26
69364;BMP280;56526;55.406;86.130;2022-09-11T05:03:41;97862.41;;;23.42
69364;BMP280;56526;55.406;86.130;2022-09-11T05:06:09;97860.53;;;24.00
69364;BMP280;56526;55.406;86.130;2022-09-11T05:08:36;97857.34;;;24.18
69364;BMP280;56526;55.406;86.130;2022-09-11T05:11:03;97851.69;;;24.54
69364;BMP280;56526;55.406;86.130;2022-09-11T05:13:31;97858.63;;;24.55
69364;BMP280;56526;55.406;86.130;2022-09-11T05:16:14;97860.56;;;24.67
69364;BMP280;56526;55.406;86.130;2022-09-11T05:18:47;97854.91;;;24.36
69364;BMP280;56526;55.406;86.130;2022-09-11T05:21:15;97844.28;;;24.29
69364;BMP280;56526;55.406;86.130;2022-09-11T05:23:46;97847.25;;;24.47
69364;BMP280;56526;55.406;86.130;2022-09-11T05:26:18;97835.63;;;24.34
69364;BMP280;56526;55.406;86.130;2022-09-11T05:28:46;97836.72;;;24.49
69364;BMP280;56526;55.406;86.130;2022-09-11T05:31:15;97828.50;;;24.53
69364;BMP280;56526;55.406;86.130;2022-09-11T05:33:46;97832.88;;;24.09
69364;BMP280;56526;55.406;86.130;2022-09-11T05:36:13;97831.81;;;23.32
69364;BMP280;56526;55.406;86.130;2022-09-11T05:38:41;97832.28;;;23.44
69364;BMP280;56526;55.406;86.130;2022-09-11T05:41:09;97815.44;;;23.97
69364;BMP280;56526;55.406;86.130;2022-09-11T05:43:38;97811.81;;;24.29
69364;BMP280;56526;55.406;86.130;2022-09-11T05:46:06;97808.72;;;24.69
69364;BMP280;56526;55.406;86.130;2022-09-11T05:48:34;97803.47;;;25.12
69364;BMP280;56526;55.406;86.130;2022-09-11T05:51:12;97803.00;;;25.48
69364;BMP280;56526;55.406;86.130;2022-09-11T05:53:42;97796.13;;;25.34
69364;BMP280;56526;55.406;86.130;2022-09-11T05:56:14;97806.16;;;25.25
69364;BMP280;56526;55.406;86.130;2022-09-11T05:58:42;97791.38;;;25.26
69364;BMP280;56526;55.406;86.130;2022-09-11T06:01:11;97793.25;;;25.16
69364;BMP280;56526;55.406;86.130;2022-09-11T06:03:42;97787.63;;;25.23
69364;BMP280;56526;55.406;86.130;2022-09-11T06:06:11;97793.72;;;25.15
69364;BMP280;56526;55.406;86.130;2022-09-11T06:08:39;97798.41;;;24.89
69364;BMP280;56526;55.406;86.130;2022-09-11T06:11:07;97783.13;;;25.08
69364;BMP280;56526;55.406;86.130;2022-09-11T06:13:38;97778.50;;;24.83
69364;BMP280;56526;55.406;86.130;2022-09-11T06:16:13;97779.28;;;24.83
69364;BMP280;56526;55.406;86.130;2022-09-11T06:18:46;97776.88;;;25.20
69364;BMP280;56526;55.406;86.130;2022-09-11T06:21:14;97773.31;;;25.23
69364;BMP280;56526;55.406;86.130;2022-09-11T06:23:41;97767.94;;;25.10
69364;BMP280;56526;55.406;86.130;2022-09-11T06:26:12;97775.78;;;24.70
69364;BMP280;56526;55.406;86.130;2022-09-11T06:28:40;97769.94;;;24.21
69364;BMP280;56526;55.406;86.130;2022-09-11T06:31:12;97759.22;;;24.05
69364;BMP280;56526;55.406;86.130;2022-09-11T06:33:43;97759.09;;;23.96
69364;BMP280;56526;55.406;86.130;2022-09-11T06:36:15;97756.53;;;24.17
69364;BMP280;56526;55.406;86.130;2022-09-11T06:38:43;97756.44;;;24.34
69364;BMP280;56526;55.406;86.130;2022-09-11T06:41:12;97745.22;;;24.48
69364;BMP280;56526;55.406;86.130;2022-09-11T06:43:40;97755.56;;;24.75
69364;BMP280;56526;55.406;86.130;2022-09-11T06:46:11;97751.44;;;24.83
69364;BMP280;56526;55.406;86.130;2022-09-11T06:48:46;97743.91;;;24.99
69364;BMP280;56526;55.406;86.130;2022-09-11T06:53:40;97733.09;;;24.99
69364;BMP280;56526;55.406;86.130;2022-09-11T06:56:10;97733.16;;;24.62
69364;BMP280;56526;55.406;86.130;2022-09-11T06:58:38;97743.69;;;24.34
69364;BMP280;56526;55.406;86.130;2022-09-11T07:01:12;97724.84;;;23.51
69364;BMP280;56526;55.406;86.130;2022-09-11T07:03:44;97726.69;;;23.09
69364;BMP280;56526;55.406;86.130;2022-09-11T07:06:16;97754.38;;;22.65
69364;BMP280;56526;55.406;86.130;2022-09-11T07:08:49;97727.97;;;22.24
69364;BMP280;56526;55.406;86.130;2022-09-11T07:11:16;97739.00;;;21.90
69364;BMP280;56526;55.406;86.130;2022-09-11T07:13:42;97733.78;;;21.83
69364;BMP280;56526;55.406;86.130;2022-09-11T07:16:09;97726.19;;;21.78
69364;BMP280;56526;55.406;86.130;2022-09-11T07:18:37;97705.41;;;21.78
69364;BMP280;56526;55.406;86.130;2022-09-11T07:21:11;97714.78;;;21.90
69364;BMP280;56526;55.406;86.130;2022-09-11T07:23:40;97705.84;;;21.77
69364;BMP280;56526;55.406;86.130;2022-09-11T07:26:09;97697.59;;;21.64
69364;BMP280;56526;55.406;86.130;2022-09-11T07:28:37;97719.88;;;21.45
69364;BMP280;56526;55.406;86.130;2022-09-11T07:31:10;97709.91;;;21.42
69364;BMP280;56526;55.406;86.130;2022-09-11T07:33:39;97706.06;;;21.62
69364;BMP280;56526;55.406;86.130;2022-09-11T07:36:11;97698.53;;;21.73
69364;BMP280;56526;55.406;86.130;2022-09-11T07:38:40;97687.22;;;21.82
69364;BMP280;56526;55.406;86.130;2022-09-11T07:41:08;97699.75;;;21.73
69364;BMP280;56526;55.406;86.130;2022-09-11T07:43:35;97682.06;;;21.52
69364;BMP280;56526;55.406;86.130;2022-09-11T07:46:03;97693.09;;;21.38
69364;BMP280;56526;55.406;86.130;2022-09-11T07:48:37;97694.31;;;21.53
69364;BMP280;56526;55.406;86.130;2022-09-11T07:51:06;97684.66;;;21.55
69364;BMP280;56526;55.406;86.130;2022-09-11T07:53:38;97668.47;;;21.39
69364;BMP280;56526;55.406;86.130;2022-09-11T07:56:10;97676.44;;;21.43
69364;BMP280;56526;55.406;86.130;2022-09-11T07:58:44;97675.56;;;21.49
69364;BMP280;56526;55.406;86.130;2022-09-11T08:01:16;97673.91;;;21.55
69364;BMP280;56526;55.406;86.130;2022-09-11T08:03:44;97668.50;;;21.55
69364;BMP280;56526;55.406;86.130;2022-09-11T08:06:16;97670.66;;;21.64
69364;BMP280;56526;55.406;86.130;2022-09-11T08:08:44;97664.31;;;21.54
69364;BMP280;56526;55.406;86.130;2022-09-11T08:11:12;97660.59;;;21.48
69364;BMP280;56526;55.406;86.130;2022-09-11T08:13:40;97655.63;;;21.47
69364;BMP280;56526;55.406;86.130;2022-09-11T08:16:07;97645.22;;;21.49
69364;BMP280;56526;55.406;86.130;2022-09-11T08:18:33;97648.44;;;21.60
69364;BMP280;56526;55.406;86.130;2022-09-11T08:21:05;97642.91;;;21.67
69364;BMP280;56526;55.406;86.130;2022-09-11T08:23:33;97634.22;;;21.40
69364;BMP280;56526;55.406;86.130;2022-09-11T08:26:08;97629.47;;;21.27
69364;BMP280;56526;55.406;86.130;2022-09-11T08:28:44;97630.41;;;21.37
69364;BMP280;56526;55.406;86.130;2022-09-11T08:31:11;97615.41;;;21.40
69364;BMP280;56526;55.406;86.130;2022-09-11T08:33:38;97620.28;;;21.45
69364;BMP280;56526;55.406;86.130;2022-09-11T08:36:07;97609.25;;;21.39
69364;BMP280;56526;55.406;86.130;2022-09-11T08:38:36;97601.19;;;21.39
69364;BMP280;56526;55.406;86.130;2022-09-11T08:41:20;97604.19;;;21.41
69364;BMP280;56526;55.406;86.130;2022-09-11T08:44:29;97604.19;;;21.41
69364;BMP280;56526;55.406;86.130;2022-09-11T08:47:08;97603.69;;;21.46
69364;BMP280;56526;55.406;86.130;2022-09-11T08:49:41;97603.69;;;21.46
69364;BMP280;56526;55.406;86.130;2022-09-11T08:52:11;97608.06;;;21.40
69364;BMP280;56526;55.406;86.130;2022-09-11T08:54:40;97613.47;;;21.40
69364;BMP280;56526;55.406;86.130;2022-09-11T09:08:19;97601.41;;;21.05
69364;BMP280;56526;55.406;86.130;2022-09-11T09:17:05;97579.47;;;21.07
69364;BMP280;56526;55.406;86.130;2022-09-11T09:20:10;97587.63;;;21.03
69364;BMP280;56526;55.406;86.130;2022-09-11T09:22:53;97575.88;;;20.93
69364;BMP280;56526;55.406;86.130;2022-09-11T09:25:25;97577.19;;;20.85
69364;BMP280;56526;55.406;86.130;2022-09-11T09:30:50;97579.19;;;20.81
69364;BMP280;56526;55.406;86.130;2022-09-11T09:36:12;97566.72;;;20.91
69364;BMP280;56526;55.406;86.130;2022-09-11T09:38:41;97557.28;;;21.03
69364;BMP280;56526;55.406;86.130;2022-09-11T09:47:17;97542.03;;;21.16
69364;BMP280;56526;55.406;86.130;2022-09-11T09:49:44;97539.97;;;21.04
69364;BMP280;56526;55.406;86.130;2022-09-11T09:52:25;97545.00;;;21.02
69364;BMP280;56526;55.406;86.130;2022-09-11T09:55:01;97545.41;;;21.00
69364;BMP280;56526;55.406;86.130;2022-09-11T09:57:36;97545.34;;;21.04
69364;BMP280;56526;55.406;86.130;2022-09-11T10:02:44;97541.00;;;21.10
69364;BMP280;56526;55.406;86.130;2022-09-11T10:05:40;97529.84;;;21.11
69364;BMP280;56526;55.406;86.130;2022-09-11T10:08:34;97539.13;;;21.07
69364;BMP280;56526;55.406;86.130;2022-09-11T10:11:03;97531.59;;;20.98
69364;BMP280;56526;55.406;86.130;2022-09-11T10:13:33;97526.72;;;20.93
69364;BMP280;56526;55.406;86.130;2022-09-11T10:16:17;97517.81;;;20.96
69364;BMP280;56526;55.406;86.130;2022-09-11T10:18:44;97520.09;;;20.98
69364;BMP280;56526;55.406;86.130;2022-09-11T10:26:41;97505.81;;;20.81
69364;BMP280;56526;55.406;86.130;2022-09-11T10:29:25;97502.97;;;20.68
69364;BMP280;56526;55.406;86.130;2022-09-11T10:31:53;97499.31;;;20.59
69364;BMP280;56526;55.406;86.130;2022-09-11T10:34:34;97497.88;;;20.54
69364;BMP280;56526;55.406;86.130;2022-09-11T10:37:07;97492.41;;;20.58
69364;BMP280;56526;55.406;86.130;2022-09-11T10:39:46;97488.56;;;20.59
69364;BMP280;56526;55.406;86.130;2022-09-11T10:42:26;97491.59;;;20.61
69364;BMP280;56526;55.406;86.130;2022-09-11T10:45:11;97493.50;;;20.60
69364;BMP280;56526;55.406;86.130;2022-09-11T10:47:39;97492.06;;;20.56
69364;BMP280;56526;55.406;86.130;2022-09-11T10:55:51;97478.44;;;20.23
69364;BMP280;56526;55.406;86.130;2022-09-11T10:58:23;97475.88;;;20.16
69364;BMP280;56526;55.406;86.130;2022-09-11T11:00:52;97470.50;;;20.16
69364;BMP280;56526;55.406;86.130;2022-09-11T11:03:20;97472.75;;;20.18
69364;BMP280;56526;55.406;86.130;2022-09-11T11:17:46;97483.97;;;20.12
69364;BMP280;56526;55.406;86.130;2022-09-11T11:20:33;97481.69;;;20.11
69364;BMP280;56526;55.406;86.130;2022-09-11T11:32:32;97464.88;;;19.84
69364;BMP280;56526;55.406;86.130;2022-09-11T11:35:33;97467.25;;;19.78
69364;BMP280;56526;55.406;86.130;2022-09-11T11:38:15;97459.66;;;19.73
69364;BMP280;56526;55.406;86.130;2022-09-11T11:40:51;97462.38;;;19.69
69364;BMP280;56526;55.406;86.130;2022-09-11T11:43:23;97440.63;;;19.64
69364;BMP280;56526;55.406;86.130;2022-09-11T11:48:55;97438.84;;;19.54
69364;BMP280;56526;55.406;86.130;2022-09-11T11:51:29;97432.41;;;19.48
69364;BMP280;56526;55.406;86.130;2022-09-11T11:54:04;97429.13;;;19.36
69364;BMP280;56526;55.406;86.130;2022-09-11T11:57:08;97424.31;;;19.24
69364;BMP280;56526;55.406;86.130;2022-09-11T12:00:00;97425.59;;;19.13
69364;BMP280;56526;55.406;86.130;2022-09-11T12:02:52;97416.13;;;19.05
69364;BMP280;56526;55.406;86.130;2022-09-11T12:05:25;97415.84;;;18.95
69364;BMP280;56526;55.406;86.130;2022-09-11T12:07:56;97418.63;;;18.88
69364;BMP280;56526;55.406;86.130;2022-09-11T12:10:35;97407.63;;;18.79
69364;BMP280;56526;55.406;86.130;2022-09-11T12:13:13;97403.94;;;18.70
69364;BMP280;56526;55.406;86.130;2022-09-11T12:19:19;97399.16;;;18.50
69364;BMP280;56526;55.406;86.130;2022-09-11T12:24:57;97392.34;;;18.39
69364;BMP280;56526;55.406;86.130;2022-09-11T12:27:49;97389.66;;;18.39
69364;BMP280;56526;55.406;86.130;2022-09-11T12:30:55;97384.00;;;18.33
69364;BMP280;56526;55.406;86.130;2022-09-11T12:36:12;97393.25;;;18.25
69364;BMP280;56526;55.406;86.130;2022-09-11T12:38:47;97387.16;;;18.24
69364;BMP280;56526;55.406;86.130;2022-09-11T12:41:38;97375.34;;;18.22
69364;BMP280;56526;55.406;86.130;2022-09-11T12:44:04;97371.50;;;18.19
69364;BMP280;56526;55.406;86.130;2022-09-11T12:49:09;97364.25;;;18.20
69364;BMP280;56526;55.406;86.130;2022-09-11T12:54:14;97369.25;;;18.14
69364;BMP280;56526;55.406;86.130;2022-09-11T12:56:52;97370.84;;;18.12
69364;BMP280;56526;55.406;86.130;2022-09-11T12:59:30;97373.53;;;18.08
69364;BMP280;56526;55.406;86.130;2022-09-11T13:01:58;97364.38;;;18.06
69364;BMP280;56526;55.406;86.130;2022-09-11T13:04:28;97365.94;;;18.00
69364;BMP280;56526;55.406;86.130;2022-09-11T13:07:00;97358.75;;;17.93
69364;BMP280;56526;55.406;86.130;2022-09-11T13:09:37;97347.72;;;17.88
69364;BMP280;56526;55.406;86.130;2022-09-11T13:14:58;97350.53;;;17.73
69364;BMP280;56526;55.406;86.130;2022-09-11T13:17:29;97355.13;;;17.66
69364;BMP280;56526;55.406;86.130;2022-09-11T13:20:21;97361.25;;;17.66
69364;BMP280;56526;55.406;86.130;2022-09-11T13:22:49;97365.84;;;17.66
69364;BMP280;56526;55.406;86.130;2022-09-11T13:25:23;97362.81;;;17.64
69364;BMP280;56526;55.406;86.130;2022-09-11T13:27:54;97357.06;;;17.62
69364;BMP280;56526;55.406;86.130;2022-09-11T13:30:23;97360.53;;;17.59
69364;BMP280;56526;55.406;86.130;2022-09-11T13:33:07;97352.56;;;17.52
69364;BMP280;56526;55.406;86.130;2022-09-11T13:35:45;97345.38;;;17.41
69364;BMP280;56526;55.406;86.130;2022-09-11T13:38:21;97330.91;;;17.32
69364;BMP280;56526;55.406;86.130;2022-09-11T13:40:55;97318.03;;;17.16
69364;BMP280;56526;55.406;86.130;2022-09-11T13:43:44;97326.53;;;16.97
69364;BMP280;56526;55.406;86.130;2022-09-11T13:46:23;97326.25;;;16.77
69364;BMP280;56526;55.406;86.130;2022-09-11T13:51:40;97306.13;;;16.51
69364;BMP280;56526;55.406;86.130;2022-09-11T13:54:14;97314.16;;;16.37
69364;BMP280;56526;55.406;86.130;2022-09-11T13:59:38;97301.66;;;16.06
69364;BMP280;56526;55.406;86.130;2022-09-11T14:21:36;97273.38;;;15.02
69364;BMP280;56526;55.406;86.130;2022-09-11T14:24:24;97269.22;;;14.93
69364;BMP280;56526;55.406;86.130;2022-09-11T14:26:59;97262.72;;;14.87
69364;BMP280;56526;55.406;86.130;2022-09-11T14:29:30;97252.81;;;14.77
69364;BMP280;56526;55.406;86.130;2022-09-11T14:32:35;97242.50;;;14.65
69364;BMP280;56526;55.406;86.130;2022-09-11T14:35:04;97230.28;;;14.60
69364;BMP280;56526;55.406;86.130;2022-09-11T14:37:37;97223.03;;;14.50
69364;BMP280;56526;55.406;86.130;2022-09-11T14:40:13;97219.19;;;14.44
69364;BMP280;56526;55.406;86.130;2022-09-11T14:42:41;97225.63;;;14.36
69364;BMP280;56526;55.406;86.130;2022-09-11T14:45:20;97232.44;;;14.34
69364;BMP280;56526;55.406;86.130;2022-09-11T14:47:48;97243.47;;;14.32
69364;BMP280;56526;55.406;86.130;2022-09-11T14:50:15;97246.50;;;14.31
69364;BMP280;56526;55.406;86.130;2022-09-11T14:52:42;97244.22;;;14.33
69364;BMP280;56526;55.406;86.130;2022-09-11T14:55:16;97246.19;;;14.36
69364;BMP280;56526;55.406;86.130;2022-09-11T14:57:44;97240.06;;;14.35
69364;BMP280;56526;55.406;86.130;2022-09-11T15:02:36;97222.53;;;14.31
69364;BMP280;56526;55.406;86.130;2022-09-11T15:05:08;97216.81;;;14.25
69364;BMP280;56526;55.406;86.130;2022-09-11T15:07:39;97211.50;;;14.21
69364;BMP280;56526;55.406;86.130;2022-09-11T15:10:09;97198.16;;;14.18
69364;BMP280;56526;55.406;86.130;2022-09-11T15:12:36;97181.78;;;14.12
69364;BMP280;56526;55.406;86.130;2022-09-11T15:15:04;97191.31;;;14.10
69364;BMP280;56526;55.406;86.130;2022-09-11T15:17:31;97192.06;;;14.10
69364;BMP280;56526;55.406;86.130;2022-09-11T15:19:58;97179.50;;;14.07
69364;BMP280;56526;55.406;86.130;2022-09-11T15:22:24;97173.44;;;14.07
69364;BMP280;56526;55.406;86.130;2022-09-11T15:24:51;97162.00;;;14.03
69364;BMP280;56526;55.406;86.130;2022-09-11T15:27:17;97150.97;;;14.01
69364;BMP280;56526;55.406;86.130;2022-09-11T15:29:44;97134.22;;;13.97
69364;BMP280;56526;55.406;86.130;2022-09-11T15:32:10;97134.59;;;13.92
69364;BMP280;56526;55.406;86.130;2022-09-11T15:34:37;97140.25;;;13.86
69364;BMP280;56526;55.406;86.130;2022-09-11T15:37:04;97130.75;;;13.85
69364;BMP280;56526;55.406;86.130;2022-09-11T15:39:31;97126.59;;;13.84
69364;BMP280;56526;55.406;86.130;2022-09-11T15:41:58;97099.97;;;13.81
69364;BMP280;56526;55.406;86.130;2022-09-11T15:44:25;97097.72;;;13.79
69364;BMP280;56526;55.406;86.130;2022-09-11T15:46:53;97088.56;;;13.77
69364;BMP280;56526;55.406;86.130;2022-09-11T15:49:21;97096.13;;;13.71
69364;BMP280;56526;55.406;86.130;2022-09-11T15:51:49;97095.00;;;13.72
69364;BMP280;56526;55.406;86.130;2022-09-11T15:54:16;97096.13;;;13.71
69364;BMP280;56526;55.406;86.130;2022-09-11T15:56:43;97099.94;;;13.70
69364;BMP280;56526;55.406;86.130;2022-09-11T15:59:10;97098.00;;;13.67
69364;BMP280;56526;55.406;86.130;2022-09-11T16:01:38;97098.38;;;13.66
69364;BMP280;56526;55.406;86.130;2022-09-11T16:04:07;97097.63;;;13.65
69364;BMP280;56526;55.406;86.130;2022-09-11T16:06:37;97107.09;;;13.63
69364;BMP280;56526;55.406;86.130;2022-09-11T16:09:08;97102.94;;;13.62
69364;BMP280;56526;55.406;86.130;2022-09-11T16:11:36;97112.41;;;13.59
69364;BMP280;56526;55.406;86.130;2022-09-11T16:14:02;97126.03;;;13.58
69364;BMP280;56526;55.406;86.130;2022-09-11T16:16:29;97124.13;;;13.58
69364;BMP280;56526;55.406;86.130;2022-09-11T16:18:55;97118.47;;;13.60
69364;BMP280;56526;55.406;86.130;2022-09-11T16:21:21;97109.38;;;13.61
69364;BMP280;56526;55.406;86.130;2022-09-11T16:23:47;97121.13;;;13.60
69364;BMP280;56526;55.406;86.130;2022-09-11T16:26:18;97120.38;;;13.59
69364;BMP280;56526;55.406;86.130;2022-09-11T16:28:45;97126.78;;;13.58
69364;BMP280;56526;55.406;86.130;2022-09-11T16:31:13;97124.91;;;13.55
69364;BMP280;56526;55.406;86.130;2022-09-11T16:33:41;97118.06;;;13.54
69364;BMP280;56526;55.406;86.130;2022-09-11T16:36:17;97128.69;;;13.54
69364;BMP280;56526;55.406;86.130;2022-09-11T16:38:46;97136.25;;;13.52
69364;BMP280;56526;55.406;86.130;2022-09-11T16:41:14;97133.59;;;13.52
69364;BMP280;56526;55.406;86.130;2022-09-11T16:43:47;97134.38;;;13.52